createdAt,value
2022-12-29T00:00:58.416Z,991.31
2022-12-29T00:01:58.355Z,991.32
2022-12-29T00:02:58.596Z,991.31
2022-12-29T00:03:58.382Z,991.28
2022-12-29T00:04:58.323Z,991.27
2022-12-29T00:05:58.326Z,991.26
2022-12-29T00:06:58.326Z,991.21
2022-12-29T00:07:58.283Z,991.21
2022-12-29T00:08:58.435Z,991.18
2022-12-29T00:09:58.254Z,991.16
2022-12-29T00:10:58.252Z,991.12
2022-12-29T00:11:58.240Z,991.08
2022-12-29T00:12:58.238Z,991.14
2022-12-29T00:13:58.265Z,991.06
2022-12-29T00:14:58.344Z,991.09
2022-12-29T00:15:58.239Z,991.05
2022-12-29T00:16:58.186Z,991.06
2022-12-29T00:17:58.181Z,991.04
2022-12-29T00:18:58.179Z,991.03
2022-12-29T00:19:58.164Z,990.98
2022-12-29T00:20:58.335Z,990.99
2022-12-29T00:21:58.133Z,990.93
2022-12-29T00:22:58.132Z,990.95
2022-12-29T00:23:58.115Z,990.95
2022-12-29T00:24:58.110Z,990.93
2022-12-29T00:25:58.088Z,990.92
2022-12-29T00:26:58.380Z,990.93
2022-12-29T00:28:03.082Z,990.92
2022-12-29T00:28:58.074Z,990.89
2022-12-29T00:29:58.079Z,990.96
2022-12-29T00:30:58.054Z,990.96
2022-12-29T00:31:58.032Z,990.97
2022-12-29T00:32:58.219Z,991.03
2022-12-29T00:33:58.014Z,990.98
2022-12-29T00:34:58.034Z,990.98
2022-12-29T00:35:57.993Z,991.02
2022-12-29T00:36:58.003Z,990.99
2022-12-29T00:37:57.999Z,991.06
2022-12-29T00:38:58.108Z,990.99
2022-12-29T00:39:57.966Z,990.95
2022-12-29T00:40:57.956Z,990.99
2022-12-29T00:41:57.958Z,990.95
2022-12-29T00:42:57.920Z,990.95
2022-12-29T00:43:57.922Z,990.96
2022-12-29T00:44:58.054Z,990.97
2022-12-29T00:45:57.917Z,990.96
2022-12-29T00:46:57.924Z,990.90
2022-12-29T00:47:57.868Z,990.89
2022-12-29T00:48:57.870Z,990.96
2022-12-29T00:49:57.865Z,990.92
2022-12-29T00:50:57.892Z,990.86
2022-12-29T00:51:57.830Z,990.87
2022-12-29T00:52:57.860Z,990.82
2022-12-29T00:53:57.808Z,990.80
2022-12-29T00:54:57.826Z,990.81
2022-12-29T00:55:57.787Z,990.80
2022-12-29T00:56:57.812Z,990.79
2022-12-29T00:58:06.092Z,990.80
2022-12-29T00:58:57.769Z,990.78
2022-12-29T00:59:57.755Z,990.72
2022-12-29T01:00:57.759Z,990.77
2022-12-29T01:01:57.869Z,990.70
2022-12-29T01:02:57.997Z,990.70
2022-12-29T01:04:02.171Z,990.67
2022-12-29T01:04:57.710Z,990.65
2022-12-29T01:05:57.690Z,990.62
2022-12-29T01:06:57.668Z,990.58
2022-12-29T01:07:57.679Z,990.60
2022-12-29T01:08:57.692Z,990.58
2022-12-29T01:09:57.641Z,990.57
2022-12-29T01:10:57.625Z,990.56
2022-12-29T01:11:57.624Z,990.57
2022-12-29T01:12:57.613Z,990.54
2022-12-29T01:13:57.601Z,990.56
2022-12-29T01:14:57.718Z,990.52
2022-12-29T01:15:57.639Z,990.51
2022-12-29T01:16:57.579Z,990.50
2022-12-29T01:17:57.574Z,990.49
2022-12-29T01:18:57.556Z,990.49
2022-12-29T01:19:57.540Z,990.40
2022-12-29T01:20:57.562Z,990.43
2022-12-29T01:21:57.523Z,990.43
2022-12-29T01:22:57.505Z,990.39
2022-12-29T01:23:57.501Z,990.42
2022-12-29T01:24:57.485Z,990.40
2022-12-29T01:25:57.479Z,990.38
2022-12-29T01:26:57.482Z,990.38
2022-12-29T01:27:57.469Z,990.37
2022-12-29T01:28:57.485Z,990.36
2022-12-29T01:29:57.435Z,990.33
2022-12-29T01:30:57.421Z,990.31
2022-12-29T01:31:57.505Z,990.30
2022-12-29T01:32:57.662Z,990.28
2022-12-29T01:33:57.393Z,990.28
2022-12-29T01:34:57.400Z,990.26
2022-12-29T01:35:57.402Z,990.25
2022-12-29T01:36:57.367Z,990.20
2022-12-29T01:37:57.366Z,990.21
2022-12-29T01:38:57.371Z,990.21
2022-12-29T01:39:57.344Z,990.18
2022-12-29T01:40:57.418Z,990.18
2022-12-29T01:41:57.321Z,990.14
2022-12-29T01:42:57.303Z,990.10
2022-12-29T01:43:57.316Z,990.08
2022-12-29T01:44:57.338Z,990.10
2022-12-29T01:45:57.311Z,990.06
2022-12-29T01:46:57.255Z,990.02
2022-12-29T01:47:57.253Z,990.02
2022-12-29T01:48:57.234Z,990.01
2022-12-29T01:49:57.234Z,990.01
2022-12-29T01:50:57.264Z,990.03
2022-12-29T01:51:57.220Z,990.02
2022-12-29T01:52:57.195Z,989.99
2022-12-29T01:53:57.195Z,989.96
2022-12-29T01:54:57.171Z,989.96
2022-12-29T01:55:57.183Z,989.90
2022-12-29T01:56:57.176Z,989.89
2022-12-29T01:58:04.643Z,989.92
2022-12-29T01:58:57.142Z,989.91
2022-12-29T01:59:57.127Z,989.89
2022-12-29T02:00:57.242Z,989.87
2022-12-29T02:01:57.135Z,989.84
2022-12-29T02:02:57.314Z,989.79
2022-12-29T02:03:57.093Z,989.76
2022-12-29T02:05:01.404Z,989.75
2022-12-29T02:05:57.082Z,989.73
2022-12-29T02:06:57.071Z,989.70
2022-12-29T02:07:57.086Z,989.70
2022-12-29T02:08:57.182Z,989.71
2022-12-29T02:09:57.021Z,989.66
2022-12-29T02:10:57.022Z,989.66
2022-12-29T02:11:57.003Z,989.59
2022-12-29T02:12:57.022Z,989.59
2022-12-29T02:13:57.030Z,989.60
2022-12-29T02:14:57.015Z,989.55
2022-12-29T02:15:57.121Z,989.55
2022-12-29T02:16:57.078Z,989.55
2022-12-29T02:17:56.965Z,989.55
2022-12-29T02:18:56.941Z,989.53
2022-12-29T02:19:56.944Z,989.50
2022-12-29T02:20:56.943Z,989.48
2022-12-29T02:21:56.900Z,989.47
2022-12-29T02:22:56.895Z,989.49
2022-12-29T02:23:56.883Z,989.47
2022-12-29T02:24:56.860Z,989.43
2022-12-29T02:25:56.863Z,989.41
2022-12-29T02:26:56.881Z,989.38
2022-12-29T02:27:56.847Z,989.38
2022-12-29T02:28:56.827Z,989.38
2022-12-29T02:29:56.835Z,989.37
2022-12-29T02:30:56.813Z,989.37
2022-12-29T02:31:56.858Z,989.38
2022-12-29T02:32:57.086Z,989.38
2022-12-29T02:33:56.773Z,989.40
2022-12-29T02:34:56.769Z,989.31
2022-12-29T02:35:56.779Z,989.33
2022-12-29T02:36:56.742Z,989.29
2022-12-29T02:37:56.742Z,989.32
2022-12-29T02:38:56.761Z,989.24
2022-12-29T02:39:56.709Z,989.21
2022-12-29T02:40:56.707Z,989.16
2022-12-29T02:41:56.708Z,989.17
2022-12-29T02:42:56.684Z,989.12
2022-12-29T02:43:56.676Z,989.12
2022-12-29T02:44:56.671Z,989.12
2022-12-29T02:45:56.704Z,989.08
2022-12-29T02:46:56.644Z,989.05
2022-12-29T02:47:56.634Z,989.01
2022-12-29T02:48:56.612Z,989.02
2022-12-29T02:49:56.617Z,989.08
2022-12-29T02:50:56.732Z,989.09
2022-12-29T02:51:56.620Z,989.11
2022-12-29T02:52:56.582Z,989.10
2022-12-29T02:53:56.576Z,989.05
2022-12-29T02:54:56.551Z,989.03
2022-12-29T02:55:56.558Z,989.01
2022-12-29T02:56:56.568Z,988.98
2022-12-29T02:58:04.643Z,988.95
2022-12-29T02:58:56.511Z,988.97
2022-12-29T02:59:56.504Z,988.99
2022-12-29T03:00:56.533Z,988.99
2022-12-29T03:01:56.695Z,988.93
2022-12-29T03:02:56.894Z,988.93
2022-12-29T03:03:56.466Z,988.87
2022-12-29T03:04:56.447Z,988.82
2022-12-29T03:05:56.437Z,988.84
2022-12-29T03:06:56.440Z,988.81
2022-12-29T03:07:56.418Z,988.80
2022-12-29T03:08:56.533Z,988.79
2022-12-29T03:09:56.405Z,988.72
2022-12-29T03:10:56.394Z,988.71
2022-12-29T03:11:56.382Z,988.69
2022-12-29T03:12:56.364Z,988.71
2022-12-29T03:13:56.358Z,988.69
2022-12-29T03:14:56.471Z,988.70
2022-12-29T03:15:56.339Z,988.71
2022-12-29T03:16:56.454Z,988.67
2022-12-29T03:17:56.323Z,988.69
2022-12-29T03:18:56.309Z,988.66
2022-12-29T03:19:56.299Z,988.63
2022-12-29T03:20:56.413Z,988.63
2022-12-29T03:21:56.301Z,988.62
2022-12-29T03:22:56.263Z,988.64
2022-12-29T03:23:56.254Z,988.64
2022-12-29T03:24:56.247Z,988.61
2022-12-29T03:25:56.233Z,988.62
2022-12-29T03:26:56.269Z,988.59
2022-12-29T03:27:56.216Z,988.60
2022-12-29T03:28:56.197Z,988.58
2022-12-29T03:29:56.203Z,988.57
2022-12-29T03:30:56.231Z,988.50
2022-12-29T03:31:56.171Z,988.48
2022-12-29T03:32:56.197Z,988.48
2022-12-29T03:33:56.161Z,988.44
2022-12-29T03:34:56.154Z,988.45
2022-12-29T03:35:56.141Z,988.46
2022-12-29T03:36:56.121Z,988.46
2022-12-29T03:37:56.108Z,988.46
2022-12-29T03:38:56.348Z,988.45
2022-12-29T03:39:56.099Z,988.44
2022-12-29T03:40:56.081Z,988.40
2022-12-29T03:41:56.071Z,988.38
2022-12-29T03:42:56.052Z,988.37
2022-12-29T03:43:56.060Z,988.40
2022-12-29T03:44:56.068Z,988.37
2022-12-29T03:45:56.121Z,988.29
2022-12-29T03:46:56.014Z,988.32
2022-12-29T03:47:56.016Z,988.25
2022-12-29T03:48:56.005Z,988.32
2022-12-29T03:49:55.996Z,988.30
2022-12-29T03:50:56.018Z,988.27
2022-12-29T03:51:55.972Z,988.29
2022-12-29T03:52:55.950Z,988.25
2022-12-29T03:53:55.949Z,988.32
2022-12-29T03:54:55.933Z,988.30
2022-12-29T03:55:55.926Z,988.24
2022-12-29T03:56:55.936Z,988.26
2022-12-29T03:58:03.168Z,988.24
2022-12-29T03:58:55.884Z,988.17
2022-12-29T03:59:55.884Z,988.17
2022-12-29T04:00:55.895Z,988.15
2022-12-29T04:01:55.978Z,988.18
2022-12-29T04:02:56.180Z,988.18
2022-12-29T04:03:55.846Z,988.15
2022-12-29T04:04:55.820Z,988.17
2022-12-29T04:05:55.834Z,988.12
2022-12-29T04:06:55.799Z,988.13
2022-12-29T04:07:55.798Z,988.14
2022-12-29T04:08:55.812Z,988.14
2022-12-29T04:09:55.795Z,988.13
2022-12-29T04:10:55.773Z,988.11
2022-12-29T04:11:55.783Z,988.03
2022-12-29T04:12:55.750Z,988.09
2022-12-29T04:13:55.752Z,988.13
2022-12-29T04:14:55.904Z,988.11
2022-12-29T04:15:55.772Z,988.17
2022-12-29T04:16:55.713Z,988.13
2022-12-29T04:17:55.718Z,988.19
2022-12-29T04:18:55.697Z,988.16
2022-12-29T04:19:55.676Z,988.15
2022-12-29T04:20:56.106Z,988.12
2022-12-29T04:21:55.653Z,988.11
2022-12-29T04:22:55.637Z,988.06
2022-12-29T04:23:55.653Z,988.00
2022-12-29T04:24:55.619Z,987.96
2022-12-29T04:25:55.617Z,987.94
2022-12-29T04:26:55.759Z,987.89
2022-12-29T04:27:55.597Z,987.90
2022-12-29T04:28:55.580Z,987.88
2022-12-29T04:29:55.635Z,987.90
2022-12-29T04:30:55.618Z,987.95
2022-12-29T04:31:55.560Z,987.95
2022-12-29T04:32:55.684Z,987.97
2022-12-29T04:33:55.536Z,987.98
2022-12-29T04:34:55.521Z,987.95
2022-12-29T04:35:55.528Z,987.95
2022-12-29T04:36:55.492Z,987.94
2022-12-29T04:37:55.492Z,987.95
2022-12-29T04:38:55.523Z,987.88
2022-12-29T04:39:55.475Z,987.87
2022-12-29T04:40:55.459Z,987.90
2022-12-29T04:41:55.460Z,987.86
2022-12-29T04:42:55.431Z,987.83
2022-12-29T04:43:55.431Z,987.83
2022-12-29T04:44:55.454Z,987.82
2022-12-29T04:45:55.411Z,987.80
2022-12-29T04:46:55.528Z,987.82
2022-12-29T04:47:55.395Z,987.84
2022-12-29T04:48:55.375Z,987.90
2022-12-29T04:49:55.368Z,987.85
2022-12-29T04:50:55.519Z,987.88
2022-12-29T04:51:55.370Z,987.93
2022-12-29T04:52:55.325Z,987.92
2022-12-29T04:53:55.335Z,987.86
2022-12-29T04:54:55.318Z,987.85
2022-12-29T04:55:55.309Z,987.85
2022-12-29T04:56:55.343Z,987.90
2022-12-29T04:58:47.253Z,987.76
2022-12-29T04:59:48.239Z,987.78
2022-12-29T05:00:48.206Z,987.82
2022-12-29T05:01:48.248Z,987.78
2022-12-29T05:02:48.437Z,987.79
2022-12-29T05:03:48.174Z,987.74
2022-12-29T05:04:48.151Z,987.69
2022-12-29T05:05:48.147Z,987.72
2022-12-29T05:06:48.136Z,987.73
2022-12-29T05:07:48.122Z,987.80
2022-12-29T05:08:48.146Z,987.81
2022-12-29T05:09:48.122Z,987.85
2022-12-29T05:10:48.095Z,987.94
2022-12-29T05:11:48.072Z,987.92
2022-12-29T05:12:48.088Z,987.91
2022-12-29T05:13:48.064Z,987.89
2022-12-29T05:14:48.084Z,987.83
2022-12-29T05:15:48.057Z,987.82
2022-12-29T05:16:48.039Z,987.82
2022-12-29T05:17:48.027Z,987.88
2022-12-29T05:18:48.006Z,987.82
2022-12-29T05:19:47.999Z,987.91
2022-12-29T05:20:48.011Z,987.95
2022-12-29T05:21:47.977Z,987.99
2022-12-29T05:22:47.976Z,987.90
2022-12-29T05:23:47.982Z,987.86
2022-12-29T05:24:47.949Z,987.90
2022-12-29T05:25:47.931Z,987.88
2022-12-29T05:26:48.055Z,987.89
2022-12-29T05:27:47.917Z,987.89
2022-12-29T05:28:47.916Z,987.77
2022-12-29T05:29:47.884Z,987.81
2022-12-29T05:30:47.886Z,987.79
2022-12-29T05:31:47.909Z,987.75
2022-12-29T05:32:48.006Z,987.80
2022-12-29T05:33:47.850Z,987.71
2022-12-29T05:34:47.838Z,987.76
2022-12-29T05:35:47.828Z,987.76
2022-12-29T05:36:47.829Z,987.73
2022-12-29T05:37:47.806Z,987.72
2022-12-29T05:38:47.952Z,987.68
2022-12-29T05:39:47.799Z,987.69
2022-12-29T05:40:47.777Z,987.68
2022-12-29T05:41:47.769Z,987.67
2022-12-29T05:42:47.756Z,987.67
2022-12-29T05:43:47.752Z,987.67
2022-12-29T05:44:47.871Z,987.73
2022-12-29T05:45:47.725Z,987.62
2022-12-29T05:46:47.766Z,987.60
2022-12-29T05:47:47.703Z,987.55
2022-12-29T05:48:47.695Z,987.48
2022-12-29T05:49:47.688Z,987.53
2022-12-29T05:50:47.732Z,987.52
2022-12-29T05:51:47.708Z,987.55
2022-12-29T05:52:47.664Z,987.56
2022-12-29T05:53:47.635Z,987.58
2022-12-29T05:54:47.650Z,987.54
2022-12-29T05:55:49.065Z,987.55
2022-12-29T05:56:47.643Z,987.53
2022-12-29T05:57:47.597Z,987.53
2022-12-29T05:58:56.066Z,987.54
2022-12-29T05:59:47.571Z,987.50
2022-12-29T06:00:47.571Z,987.50
2022-12-29T06:01:47.856Z,987.47
2022-12-29T06:02:47.898Z,987.48
2022-12-29T06:03:48.567Z,987.42
2022-12-29T06:04:47.519Z,987.51
2022-12-29T06:05:47.524Z,987.42
2022-12-29T06:06:47.577Z,987.45
2022-12-29T06:07:47.497Z,987.40
2022-12-29T06:08:47.553Z,987.38
2022-12-29T06:09:47.510Z,987.40
2022-12-29T06:10:47.507Z,987.35
2022-12-29T06:11:47.468Z,987.37
2022-12-29T06:12:47.444Z,987.37
2022-12-29T06:13:47.460Z,987.33
2022-12-29T06:14:47.585Z,987.33
2022-12-29T06:15:47.404Z,987.30
2022-12-29T06:16:47.477Z,987.24
2022-12-29T06:17:47.417Z,987.29
2022-12-29T06:18:47.423Z,987.28
2022-12-29T06:19:47.464Z,987.25
2022-12-29T06:20:47.492Z,987.25
2022-12-29T06:21:47.345Z,987.27
2022-12-29T06:22:47.397Z,987.25
2022-12-29T06:23:47.356Z,987.28
2022-12-29T06:24:47.434Z,987.25
2022-12-29T06:25:47.305Z,987.27
2022-12-29T06:26:47.435Z,987.24
2022-12-29T06:27:47.289Z,987.23
2022-12-29T06:28:47.272Z,987.26
2022-12-29T06:29:47.268Z,987.24
2022-12-29T06:30:47.263Z,987.23
2022-12-29T06:31:47.318Z,987.19
2022-12-29T06:32:47.370Z,987.20
2022-12-29T06:33:50.003Z,987.24
2022-12-29T06:34:47.218Z,987.26
2022-12-29T06:35:47.197Z,987.20
2022-12-29T06:36:47.194Z,987.28
2022-12-29T06:37:47.173Z,987.23
2022-12-29T06:38:47.301Z,987.23
2022-12-29T06:39:47.160Z,987.24
2022-12-29T06:40:47.153Z,987.20
2022-12-29T06:41:47.153Z,987.17
2022-12-29T06:42:47.131Z,987.20
2022-12-29T06:43:47.110Z,987.20
2022-12-29T06:44:47.138Z,987.13
2022-12-29T06:45:47.111Z,987.20
2022-12-29T06:46:47.080Z,987.23
2022-12-29T06:47:47.084Z,987.20
2022-12-29T06:48:47.058Z,987.21
2022-12-29T06:49:47.050Z,987.22
2022-12-29T06:50:47.185Z,987.26
2022-12-29T06:51:47.019Z,987.19
2022-12-29T06:52:47.072Z,987.29
2022-12-29T06:53:46.998Z,987.32
2022-12-29T06:54:47.012Z,987.38
2022-12-29T06:55:46.981Z,987.34
2022-12-29T06:56:47.271Z,987.34
2022-12-29T06:57:46.991Z,987.32
2022-12-29T06:58:54.062Z,987.20
2022-12-29T06:59:46.936Z,987.22
2022-12-29T07:00:47.002Z,987.27
2022-12-29T07:01:47.102Z,987.21
2022-12-29T07:02:47.245Z,987.22
2022-12-29T07:03:46.914Z,987.25
2022-12-29T07:04:46.890Z,987.25
2022-12-29T07:05:46.882Z,987.24
2022-12-29T07:06:46.864Z,987.17
2022-12-29T07:07:46.870Z,987.18
2022-12-29T07:08:46.868Z,987.16
2022-12-29T07:09:46.835Z,987.23
2022-12-29T07:10:46.828Z,987.24
2022-12-29T07:11:46.814Z,987.17
2022-12-29T07:12:46.822Z,987.22
2022-12-29T07:13:46.790Z,987.22
2022-12-29T07:14:46.907Z,987.18
2022-12-29T07:15:46.766Z,987.19
2022-12-29T07:16:46.817Z,987.20
2022-12-29T07:17:46.745Z,987.21
2022-12-29T07:18:46.743Z,987.19
2022-12-29T07:19:46.722Z,987.20
2022-12-29T07:20:46.864Z,987.22
2022-12-29T07:21:49.560Z,987.22
2022-12-29T07:22:46.697Z,987.23
2022-12-29T07:23:46.787Z,987.23
2022-12-29T07:24:46.688Z,987.26
2022-12-29T07:25:46.669Z,987.23
2022-12-29T07:26:46.713Z,987.27
2022-12-29T07:27:46.652Z,987.28
2022-12-29T07:28:46.764Z,987.23
2022-12-29T07:29:46.620Z,987.24
2022-12-29T07:30:46.625Z,987.14
2022-12-29T07:31:46.742Z,987.18
2022-12-29T07:32:46.755Z,987.17
2022-12-29T07:33:46.575Z,987.11
2022-12-29T07:34:46.610Z,987.12
2022-12-29T07:35:46.563Z,987.11
2022-12-29T07:36:46.548Z,987.12
2022-12-29T07:37:46.545Z,987.09
2022-12-29T07:38:46.545Z,987.14
2022-12-29T07:39:46.533Z,987.13
2022-12-29T07:40:46.523Z,987.09
2022-12-29T07:41:46.505Z,987.12
2022-12-29T07:42:46.508Z,987.13
2022-12-29T07:43:46.511Z,987.11
2022-12-29T07:44:46.654Z,987.08
2022-12-29T07:45:46.506Z,987.07
2022-12-29T07:46:55.971Z,987.09
2022-12-29T07:47:46.441Z,987.10
2022-12-29T07:48:46.430Z,987.04
2022-12-29T07:49:46.433Z,987.09
2022-12-29T07:50:46.428Z,987.04
2022-12-29T07:51:46.393Z,987.04
2022-12-29T07:52:46.380Z,987.04
2022-12-29T07:53:46.379Z,987.03
2022-12-29T07:54:46.409Z,987.06
2022-12-29T07:55:46.354Z,987.00
2022-12-29T07:56:46.467Z,987.05
2022-12-29T07:57:46.362Z,986.98
2022-12-29T07:58:46.327Z,986.97
2022-12-29T07:59:46.322Z,986.98
2022-12-29T08:00:46.299Z,986.97
2022-12-29T08:01:46.363Z,986.99
2022-12-29T08:02:46.434Z,986.96
2022-12-29T08:03:46.341Z,987.01
2022-12-29T08:04:46.311Z,986.98
2022-12-29T08:05:46.237Z,986.96
2022-12-29T08:06:46.239Z,986.97
2022-12-29T08:07:46.251Z,986.97
2022-12-29T08:08:46.243Z,986.98
2022-12-29T08:09:46.209Z,986.95
2022-12-29T08:10:46.202Z,986.90
2022-12-29T08:11:46.180Z,986.92
2022-12-29T08:12:46.180Z,986.87
2022-12-29T08:13:46.160Z,986.90
2022-12-29T08:14:46.170Z,986.90
2022-12-29T08:15:46.154Z,986.91
2022-12-29T08:16:46.085Z,986.91
2022-12-29T08:17:46.118Z,986.88
2022-12-29T08:18:46.112Z,986.88
2022-12-29T08:19:46.099Z,986.91
2022-12-29T08:20:49.771Z,986.84
2022-12-29T08:21:46.035Z,986.90
2022-12-29T08:22:46.085Z,986.86
2022-12-29T08:23:46.043Z,986.88
2022-12-29T08:24:45.990Z,986.87
2022-12-29T08:25:46.029Z,986.89
2022-12-29T08:26:46.188Z,986.86
2022-12-29T08:27:46.025Z,986.86
2022-12-29T08:28:46.011Z,986.93
2022-12-29T08:29:46.017Z,986.87
2022-12-29T08:30:46.004Z,986.90
2022-12-29T08:31:45.975Z,986.91
2022-12-29T08:32:45.918Z,986.89
2022-12-29T08:33:45.889Z,986.93
2022-12-29T08:34:45.915Z,986.88
2022-12-29T08:35:46.075Z,986.96
2022-12-29T08:36:45.857Z,986.90
2022-12-29T08:37:45.854Z,986.89
2022-12-29T08:38:45.892Z,986.90
2022-12-29T08:39:45.911Z,986.89
2022-12-29T08:40:45.867Z,986.92
2022-12-29T08:41:45.869Z,986.93
2022-12-29T08:42:45.861Z,986.90
2022-12-29T08:43:45.876Z,986.89
2022-12-29T08:44:45.983Z,986.98
2022-12-29T08:45:45.834Z,986.85
2022-12-29T08:46:45.862Z,986.86
2022-12-29T08:47:45.803Z,986.93
2022-12-29T08:48:45.797Z,986.99
2022-12-29T08:49:45.787Z,986.95
2022-12-29T08:50:45.832Z,986.91
2022-12-29T08:51:45.754Z,986.97
2022-12-29T08:52:45.749Z,986.94
2022-12-29T08:53:45.743Z,986.94
2022-12-29T08:54:45.726Z,986.95
2022-12-29T08:55:45.721Z,986.87
2022-12-29T08:56:45.800Z,986.93
2022-12-29T08:57:45.727Z,986.86
2022-12-29T08:58:53.115Z,986.88
2022-12-29T08:59:45.659Z,986.90
2022-12-29T09:00:45.598Z,986.92
2022-12-29T09:01:45.819Z,986.87
2022-12-29T09:02:46.092Z,986.90
2022-12-29T09:04:13.519Z,986.88
2022-12-29T09:04:45.641Z,986.84
2022-12-29T09:05:45.631Z,986.86
2022-12-29T09:06:45.600Z,986.83
2022-12-29T09:07:45.543Z,986.88
2022-12-29T09:08:45.755Z,986.88
2022-12-29T09:09:45.569Z,986.86
2022-12-29T09:10:45.519Z,986.85
2022-12-29T09:11:45.503Z,986.84
2022-12-29T09:12:45.543Z,986.86
2022-12-29T09:13:45.564Z,986.86
2022-12-29T09:14:45.869Z,986.79
2022-12-29T09:15:46.174Z,986.83
2022-12-29T09:16:45.440Z,986.80
2022-12-29T09:17:45.490Z,986.79
2022-12-29T09:18:45.477Z,986.79
2022-12-29T09:19:45.521Z,986.83
2022-12-29T09:20:45.489Z,986.88
2022-12-29T09:21:45.453Z,986.83
2022-12-29T09:22:45.375Z,986.84
2022-12-29T09:23:45.374Z,986.84
2022-12-29T09:24:45.413Z,986.84
2022-12-29T09:25:45.410Z,986.84
2022-12-29T09:26:47.243Z,986.84
2022-12-29T09:27:45.905Z,986.89
2022-12-29T09:28:45.397Z,986.85
2022-12-29T09:29:45.303Z,986.85
2022-12-29T09:30:45.279Z,986.83
2022-12-29T09:31:45.386Z,986.81
2022-12-29T09:32:47.719Z,986.84
2022-12-29T09:33:45.315Z,986.79
2022-12-29T09:34:45.299Z,986.79
2022-12-29T09:35:45.293Z,986.73
2022-12-29T09:36:45.272Z,986.74
2022-12-29T09:37:45.261Z,986.80
2022-12-29T09:38:45.431Z,986.71
2022-12-29T09:39:49.169Z,986.70
2022-12-29T09:40:45.234Z,986.75
2022-12-29T09:41:45.245Z,986.73
2022-12-29T09:42:45.280Z,986.77
2022-12-29T09:43:45.254Z,986.76
2022-12-29T09:44:45.319Z,986.72
2022-12-29T09:45:45.191Z,986.75
2022-12-29T09:46:45.173Z,986.71
2022-12-29T09:47:45.111Z,986.71
2022-12-29T09:48:45.113Z,986.74
2022-12-29T09:49:45.135Z,986.73
2022-12-29T09:50:45.237Z,986.74
2022-12-29T09:51:45.619Z,986.73
2022-12-29T09:52:45.089Z,986.70
2022-12-29T09:53:45.038Z,986.76
2022-12-29T09:54:51.510Z,986.76
2022-12-29T09:55:45.144Z,986.74
2022-12-29T09:56:45.179Z,986.77
2022-12-29T09:57:44.999Z,986.78
2022-12-29T09:58:52.116Z,986.78
2022-12-29T09:59:45.040Z,986.77
2022-12-29T10:00:48.611Z,986.80
2022-12-29T10:01:45.226Z,986.78
2022-12-29T10:02:45.315Z,986.83
2022-12-29T10:03:44.993Z,986.86
2022-12-29T10:04:45.006Z,986.85
2022-12-29T10:05:45.013Z,986.83
2022-12-29T10:07:19.287Z,986.84
2022-12-29T10:07:44.909Z,986.84
2022-12-29T10:08:45.141Z,986.81
2022-12-29T10:09:44.876Z,986.83
2022-12-29T10:10:44.858Z,986.83
2022-12-29T10:11:44.873Z,986.83
2022-12-29T10:12:44.846Z,986.86
2022-12-29T10:13:44.836Z,986.90
2022-12-29T10:14:44.977Z,986.89
2022-12-29T10:15:44.811Z,986.88
2022-12-29T10:16:44.864Z,986.88
2022-12-29T10:17:44.799Z,986.86
2022-12-29T10:18:44.777Z,986.86
2022-12-29T10:19:44.772Z,986.86
2022-12-29T10:20:44.965Z,986.79
2022-12-29T10:21:44.750Z,986.76
2022-12-29T10:22:44.735Z,986.73
2022-12-29T10:23:44.752Z,986.72
2022-12-29T10:24:44.715Z,986.74
2022-12-29T10:25:44.763Z,986.79
2022-12-29T10:26:44.949Z,986.77
2022-12-29T10:27:44.737Z,986.78
2022-12-29T10:28:44.685Z,986.80
2022-12-29T10:29:44.666Z,986.74
2022-12-29T10:30:44.644Z,986.73
2022-12-29T10:31:44.663Z,986.72
2022-12-29T10:32:44.769Z,986.75
2022-12-29T10:33:44.620Z,986.72
2022-12-29T10:34:44.605Z,986.69
2022-12-29T10:35:44.616Z,986.63
2022-12-29T10:36:44.583Z,986.65
2022-12-29T10:37:44.589Z,986.67
2022-12-29T10:38:44.699Z,986.66
2022-12-29T10:39:44.560Z,986.63
2022-12-29T10:40:44.532Z,986.61
2022-12-29T10:41:44.537Z,986.61
2022-12-29T10:42:44.531Z,986.65
2022-12-29T10:43:44.519Z,986.59
2022-12-29T10:44:44.561Z,986.57
2022-12-29T10:45:44.531Z,986.54
2022-12-29T10:46:44.472Z,986.55
2022-12-29T10:47:44.468Z,986.58
2022-12-29T10:48:44.459Z,986.54
2022-12-29T10:49:44.442Z,986.54
2022-12-29T10:50:44.568Z,986.56
2022-12-29T10:51:44.427Z,986.47
2022-12-29T10:52:44.415Z,986.55
2022-12-29T10:53:44.406Z,986.55
2022-12-29T10:54:44.408Z,986.58
2022-12-29T10:55:44.386Z,986.56
2022-12-29T10:56:44.506Z,986.56
2022-12-29T10:57:44.368Z,986.52
2022-12-29T10:58:49.270Z,986.52
2022-12-29T10:59:44.352Z,986.50
2022-12-29T11:00:44.415Z,986.52
2022-12-29T11:01:44.431Z,986.55
2022-12-29T11:02:44.685Z,986.54
2022-12-29T11:03:44.326Z,986.57
2022-12-29T11:04:44.302Z,986.58
2022-12-29T11:05:44.300Z,986.53
2022-12-29T11:06:44.287Z,986.55
2022-12-29T11:07:44.261Z,986.56
2022-12-29T11:08:44.395Z,986.56
2022-12-29T11:09:44.254Z,986.57
2022-12-29T11:10:44.223Z,986.57
2022-12-29T11:11:44.221Z,986.52
2022-12-29T11:12:44.212Z,986.55
2022-12-29T11:13:44.311Z,986.53
2022-12-29T11:14:44.476Z,986.56
2022-12-29T11:15:44.202Z,986.50
2022-12-29T11:16:44.217Z,986.59
2022-12-29T11:17:44.157Z,986.59
2022-12-29T11:18:44.140Z,986.59
2022-12-29T11:19:44.148Z,986.62
2022-12-29T11:20:44.164Z,986.62
2022-12-29T11:21:44.112Z,986.61
2022-12-29T11:22:44.114Z,986.51
2022-12-29T11:23:44.086Z,986.52
2022-12-29T11:24:44.088Z,986.56
2022-12-29T11:25:44.096Z,986.55
2022-12-29T11:26:44.203Z,986.53
2022-12-29T11:27:44.046Z,986.54
2022-12-29T11:28:44.068Z,986.52
2022-12-29T11:29:44.048Z,986.55
2022-12-29T11:30:44.018Z,986.57
2022-12-29T11:31:44.086Z,986.68
2022-12-29T11:32:44.159Z,986.66
2022-12-29T11:33:43.984Z,986.61
2022-12-29T11:34:43.985Z,986.63
2022-12-29T11:35:43.972Z,986.66
2022-12-29T11:36:43.965Z,986.68
2022-12-29T11:37:43.955Z,986.63
2022-12-29T11:38:43.977Z,986.67
2022-12-29T11:39:43.943Z,986.66
2022-12-29T11:40:43.908Z,986.68
2022-12-29T11:41:43.916Z,986.74
2022-12-29T11:42:43.881Z,986.66
2022-12-29T11:43:43.878Z,986.65
2022-12-29T11:44:44.001Z,986.68
2022-12-29T11:45:43.863Z,986.61
2022-12-29T11:46:43.859Z,986.57
2022-12-29T11:47:43.923Z,986.54
2022-12-29T11:48:43.826Z,986.56
2022-12-29T11:49:43.811Z,986.59
2022-12-29T11:50:43.951Z,986.62
2022-12-29T11:51:43.795Z,986.62
2022-12-29T11:52:43.776Z,986.65
2022-12-29T11:53:43.778Z,986.66
2022-12-29T11:54:43.775Z,986.65
2022-12-29T11:55:43.745Z,986.62
2022-12-29T11:56:43.923Z,986.60
2022-12-29T11:57:43.760Z,986.58
2022-12-29T11:58:43.715Z,986.53
2022-12-29T11:59:43.729Z,986.53
2022-12-29T12:00:43.699Z,986.54
2022-12-29T12:01:43.816Z,986.52
2022-12-29T12:02:44.185Z,986.54
2022-12-29T12:03:44.058Z,986.50
2022-12-29T12:04:43.659Z,986.55
2022-12-29T12:05:43.652Z,986.55
2022-12-29T12:06:43.633Z,986.57
2022-12-29T12:07:43.644Z,986.63
2022-12-29T12:08:43.757Z,986.64
2022-12-29T12:09:43.603Z,986.65
2022-12-29T12:10:43.613Z,986.65
2022-12-29T12:11:43.578Z,986.67
2022-12-29T12:12:43.593Z,986.63
2022-12-29T12:13:43.567Z,986.60
2022-12-29T12:14:43.793Z,986.63
2022-12-29T12:15:46.607Z,986.61
2022-12-29T12:16:43.642Z,986.63
2022-12-29T12:17:43.532Z,986.59
2022-12-29T12:18:43.497Z,986.60
2022-12-29T12:19:43.490Z,986.62
2022-12-29T12:20:43.643Z,986.65
2022-12-29T12:21:46.061Z,986.70
2022-12-29T12:22:43.454Z,986.64
2022-12-29T12:23:43.457Z,986.68
2022-12-29T12:24:43.435Z,986.66
2022-12-29T12:25:43.436Z,986.71
2022-12-29T12:26:43.590Z,986.74
2022-12-29T12:27:43.403Z,986.72
2022-12-29T12:28:43.393Z,986.69
2022-12-29T12:29:43.394Z,986.70